sensor_id;sensor_type;location;lat;lon;timestamp;P1;durP1;ratioP1;P2;durP2;ratioP2
8171;SDS011;4127;47.908;10.850;2022-08-19T00:01:53;8.43;;;7.73;;
8171;SDS011;4127;47.908;10.850;2022-08-19T00:04:22;8.80;;;8.10;;
8171;SDS011;4127;47.908;10.850;2022-08-19T00:06:52;8.63;;;7.93;;
8171;SDS011;4127;47.908;10.850;2022-08-19T00:09:20;8.63;;;7.93;;
8171;SDS011;4127;47.908;10.850;2022-08-19T00:11:47;8.67;;;7.87;;
8171;SDS011;4127;47.908;10.850;2022-08-19T00:14:15;8.23;;;7.43;;
8171;SDS011;4127;47.908;10.850;2022-08-19T00:16:44;8.63;;;7.93;;
8171;SDS011;4127;47.908;10.850;2022-08-19T00:19:13;7.80;;;7.20;;
8171;SDS011;4127;47.908;10.850;2022-08-19T00:21:42;7.77;;;7.17;;
8171;SDS011;4127;47.908;10.850;2022-08-19T00:24:10;8.00;;;7.40;;
8171;SDS011;4127;47.908;10.850;2022-08-19T00:26:39;8.37;;;7.67;;
8171;SDS011;4127;47.908;10.850;2022-08-19T00:29:07;8.13;;;7.43;;
8171;SDS011;4127;47.908;10.850;2022-08-19T00:31:36;7.80;;;7.10;;
8171;SDS011;4127;47.908;10.850;2022-08-19T00:34:03;8.60;;;7.90;;
8171;SDS011;4127;47.908;10.850;2022-08-19T00:36:30;8.53;;;7.83;;
8171;SDS011;4127;47.908;10.850;2022-08-19T00:38:58;8.43;;;7.73;;
8171;SDS011;4127;47.908;10.850;2022-08-19T00:41:25;8.53;;;7.73;;
8171;SDS011;4127;47.908;10.850;2022-08-19T00:44:12;8.87;;;8.17;;
8171;SDS011;4127;47.908;10.850;2022-08-19T00:46:48;8.40;;;7.70;;
8171;SDS011;4127;47.908;10.850;2022-08-19T00:51:55;9.17;;;8.37;;
8171;SDS011;4127;47.908;10.850;2022-08-19T00:54:28;8.83;;;8.13;;
8171;SDS011;4127;47.908;10.850;2022-08-19T00:56:58;8.90;;;8.10;;
8171;SDS011;4127;47.908;10.850;2022-08-19T00:59:25;8.50;;;7.80;;
8171;SDS011;4127;47.908;10.850;2022-08-19T01:02:14;8.80;;;8.10;;
8171;SDS011;4127;47.908;10.850;2022-08-19T01:04:42;8.67;;;7.87;;
8171;SDS011;4127;47.908;10.850;2022-08-19T01:07:09;8.27;;;7.57;;
8171;SDS011;4127;47.908;10.850;2022-08-19T01:09:44;8.53;;;7.83;;
8171;SDS011;4127;47.908;10.850;2022-08-19T01:12:11;8.07;;;7.37;;
8171;SDS011;4127;47.908;10.850;2022-08-19T01:14:38;8.80;;;8.10;;
8171;SDS011;4127;47.908;10.850;2022-08-19T01:17:09;7.17;;;6.53;;
8171;SDS011;4127;47.908;10.850;2022-08-19T01:19:41;8.10;;;7.40;;
8171;SDS011;4127;47.908;10.850;2022-08-19T01:24:58;7.77;;;7.07;;
8171;SDS011;4127;47.908;10.850;2022-08-19T01:27:25;7.47;;;6.83;;
8171;SDS011;4127;47.908;10.850;2022-08-19T01:30:00;7.87;;;7.27;;
8171;SDS011;4127;47.908;10.850;2022-08-19T01:32:27;7.23;;;6.63;;
8171;SDS011;4127;47.908;10.850;2022-08-19T01:34:58;6.77;;;6.17;;
8171;SDS011;4127;47.908;10.850;2022-08-19T01:37:28;9.07;;;6.43;;
8171;SDS011;4127;47.908;10.850;2022-08-19T01:39:56;6.93;;;6.43;;
8171;SDS011;4127;47.908;10.850;2022-08-19T01:42:23;6.87;;;6.27;;
8171;SDS011;4127;47.908;10.850;2022-08-19T01:44:55;6.00;;;5.50;;
8171;SDS011;4127;47.908;10.850;2022-08-19T01:47:22;6.87;;;6.20;;
8171;SDS011;4127;47.908;10.850;2022-08-19T01:49:50;6.37;;;5.80;;
8171;SDS011;4127;47.908;10.850;2022-08-19T01:52:17;5.87;;;5.37;;
8171;SDS011;4127;47.908;10.850;2022-08-19T01:54:44;6.10;;;5.60;;
8171;SDS011;4127;47.908;10.850;2022-08-19T01:57:12;5.37;;;4.80;;
8171;SDS011;4127;47.908;10.850;2022-08-19T01:59:40;5.33;;;4.93;;
8171;SDS011;4127;47.908;10.850;2022-08-19T02:02:08;5.00;;;4.60;;
8171;SDS011;4127;47.908;10.850;2022-08-19T02:04:35;5.37;;;4.97;;
8171;SDS011;4127;47.908;10.850;2022-08-19T02:07:06;4.67;;;4.33;;
8171;SDS011;4127;47.908;10.850;2022-08-19T02:09:34;5.50;;;5.10;;
8171;SDS011;4127;47.908;10.850;2022-08-19T02:12:01;5.50;;;5.00;;
8171;SDS011;4127;47.908;10.850;2022-08-19T02:14:29;4.60;;;4.27;;
8171;SDS011;4127;47.908;10.850;2022-08-19T02:16:56;4.90;;;4.40;;
8171;SDS011;4127;47.908;10.850;2022-08-19T02:19:23;4.87;;;4.57;;
8171;SDS011;4127;47.908;10.850;2022-08-19T02:21:49;5.00;;;4.30;;
8171;SDS011;4127;47.908;10.850;2022-08-19T02:24:16;4.27;;;3.97;;
8171;SDS011;4127;47.908;10.850;2022-08-19T02:26:43;5.43;;;5.03;;
8171;SDS011;4127;47.908;10.850;2022-08-19T02:29:10;4.77;;;4.37;;
8171;SDS011;4127;47.908;10.850;2022-08-19T02:31:37;4.57;;;4.17;;
8171;SDS011;4127;47.908;10.850;2022-08-19T02:34:04;4.70;;;4.30;;
8171;SDS011;4127;47.908;10.850;2022-08-19T02:36:31;4.93;;;4.53;;
8171;SDS011;4127;47.908;10.850;2022-08-19T02:38:58;5.20;;;4.80;;
8171;SDS011;4127;47.908;10.850;2022-08-19T02:41:27;4.97;;;4.57;;
8171;SDS011;4127;47.908;10.850;2022-08-19T02:43:56;4.73;;;4.43;;
8171;SDS011;4127;47.908;10.850;2022-08-19T02:46:47;4.57;;;4.27;;
8171;SDS011;4127;47.908;10.850;2022-08-19T02:49:17;5.10;;;4.57;;
8171;SDS011;4127;47.908;10.850;2022-08-19T02:51:45;5.53;;;5.03;;
8171;SDS011;4127;47.908;10.850;2022-08-19T02:54:12;4.70;;;4.40;;
8171;SDS011;4127;47.908;10.850;2022-08-19T02:56:40;5.33;;;4.90;;
8171;SDS011;4127;47.908;10.850;2022-08-19T02:59:08;5.23;;;4.83;;
8171;SDS011;4127;47.908;10.850;2022-08-19T03:01:37;5.03;;;4.63;;
8171;SDS011;4127;47.908;10.850;2022-08-19T03:04:06;5.47;;;5.07;;
8171;SDS011;4127;47.908;10.850;2022-08-19T03:06:37;5.90;;;5.40;;
8171;SDS011;4127;47.908;10.850;2022-08-19T03:09:05;6.07;;;5.57;;
8171;SDS011;4127;47.908;10.850;2022-08-19T03:11:32;6.00;;;5.50;;
8171;SDS011;4127;47.908;10.850;2022-08-19T03:14:00;5.77;;;5.27;;
8171;SDS011;4127;47.908;10.850;2022-08-19T03:16:29;5.80;;;5.30;;
8171;SDS011;4127;47.908;10.850;2022-08-19T03:18:59;6.00;;;5.50;;
8171;SDS011;4127;47.908;10.850;2022-08-19T03:21:28;7.27;;;6.07;;
8171;SDS011;4127;47.908;10.850;2022-08-19T03:23:57;5.90;;;5.40;;
8171;SDS011;4127;47.908;10.850;2022-08-19T03:26:27;5.93;;;5.43;;
8171;SDS011;4127;47.908;10.850;2022-08-19T03:28:54;5.60;;;5.20;;
8171;SDS011;4127;47.908;10.850;2022-08-19T03:31:24;5.57;;;5.17;;
8171;SDS011;4127;47.908;10.850;2022-08-19T03:34:21;5.40;;;4.90;;
8171;SDS011;4127;47.908;10.850;2022-08-19T03:36:54;6.27;;;5.77;;
8171;SDS011;4127;47.908;10.850;2022-08-19T03:39:23;5.70;;;5.23;;
8171;SDS011;4127;47.908;10.850;2022-08-19T03:41:51;6.53;;;5.93;;
8171;SDS011;4127;47.908;10.850;2022-08-19T03:44:43;6.47;;;5.87;;
8171;SDS011;4127;47.908;10.850;2022-08-19T03:47:11;6.80;;;6.20;;
8171;SDS011;4127;47.908;10.850;2022-08-19T03:49:42;7.50;;;6.80;;
8171;SDS011;4127;47.908;10.850;2022-08-19T03:52:10;6.60;;;6.10;;
8171;SDS011;4127;47.908;10.850;2022-08-19T03:54:37;6.37;;;5.87;;
8171;SDS011;4127;47.908;10.850;2022-08-19T03:57:05;7.90;;;6.93;;
8171;SDS011;4127;47.908;10.850;2022-08-19T03:59:33;7.37;;;6.77;;
8171;SDS011;4127;47.908;10.850;2022-08-19T04:02:03;6.70;;;6.10;;
8171;SDS011;4127;47.908;10.850;2022-08-19T04:04:36;6.10;;;5.60;;
8171;SDS011;4127;47.908;10.850;2022-08-19T04:07:05;7.30;;;6.70;;
8171;SDS011;4127;47.908;10.850;2022-08-19T04:09:33;6.03;;;5.53;;
8171;SDS011;4127;47.908;10.850;2022-08-19T04:12:03;6.47;;;5.97;;
8171;SDS011;4127;47.908;10.850;2022-08-19T04:14:33;6.60;;;5.87;;
8171;SDS011;4127;47.908;10.850;2022-08-19T04:17:01;6.57;;;5.97;;
8171;SDS011;4127;47.908;10.850;2022-08-19T04:19:31;6.53;;;5.93;;
8171;SDS011;4127;47.908;10.850;2022-08-19T04:21:59;6.10;;;5.60;;
8171;SDS011;4127;47.908;10.850;2022-08-19T04:24:26;5.70;;;5.30;;
8171;SDS011;4127;47.908;10.850;2022-08-19T04:26:53;5.53;;;5.13;;
8171;SDS011;4127;47.908;10.850;2022-08-19T04:29:22;5.77;;;5.37;;
8171;SDS011;4127;47.908;10.850;2022-08-19T04:31:52;5.93;;;5.43;;
8171;SDS011;4127;47.908;10.850;2022-08-19T04:34:20;6.10;;;5.60;;
8171;SDS011;4127;47.908;10.850;2022-08-19T04:36:50;6.23;;;5.73;;
8171;SDS011;4127;47.908;10.850;2022-08-19T04:39:25;6.00;;;5.50;;
8171;SDS011;4127;47.908;10.850;2022-08-19T04:42:15;5.90;;;5.40;;
8171;SDS011;4127;47.908;10.850;2022-08-19T04:45:02;6.10;;;5.60;;
8171;SDS011;4127;47.908;10.850;2022-08-19T04:47:34;6.70;;;6.10;;
8171;SDS011;4127;47.908;10.850;2022-08-19T04:50:22;6.20;;;5.70;;
8171;SDS011;4127;47.908;10.850;2022-08-19T04:52:50;5.90;;;5.40;;
8171;SDS011;4127;47.908;10.850;2022-08-19T04:55:17;6.57;;;6.07;;
8171;SDS011;4127;47.908;10.850;2022-08-19T04:57:44;6.10;;;5.60;;
8171;SDS011;4127;47.908;10.850;2022-08-19T05:00:12;5.43;;;5.03;;
8171;SDS011;4127;47.908;10.850;2022-08-19T05:02:39;5.37;;;4.97;;
8171;SDS011;4127;47.908;10.850;2022-08-19T05:05:06;6.33;;;5.83;;
8171;SDS011;4127;47.908;10.850;2022-08-19T05:07:33;5.20;;;4.80;;
8171;SDS011;4127;47.908;10.850;2022-08-19T05:10:00;6.07;;;5.57;;
8171;SDS011;4127;47.908;10.850;2022-08-19T05:12:27;6.00;;;5.50;;
8171;SDS011;4127;47.908;10.850;2022-08-19T05:14:55;5.70;;;5.30;;
8171;SDS011;4127;47.908;10.850;2022-08-19T05:17:24;6.73;;;6.13;;
8171;SDS011;4127;47.908;10.850;2022-08-19T05:19:55;6.43;;;5.93;;
8171;SDS011;4127;47.908;10.850;2022-08-19T05:22:41;7.27;;;6.67;;
8171;SDS011;4127;47.908;10.850;2022-08-19T05:25:11;6.77;;;6.27;;
8171;SDS011;4127;47.908;10.850;2022-08-19T05:27:40;6.63;;;6.13;;
8171;SDS011;4127;47.908;10.850;2022-08-19T05:30:08;6.50;;;5.90;;
8171;SDS011;4127;47.908;10.850;2022-08-19T05:32:37;7.13;;;6.53;;
8171;SDS011;4127;47.908;10.850;2022-08-19T05:35:04;6.90;;;6.33;;
8171;SDS011;4127;47.908;10.850;2022-08-19T05:37:32;6.90;;;6.30;;
8171;SDS011;4127;47.908;10.850;2022-08-19T05:39:58;7.10;;;6.53;;
8171;SDS011;4127;47.908;10.850;2022-08-19T05:42:25;7.37;;;6.87;;
8171;SDS011;4127;47.908;10.850;2022-08-19T05:44:52;7.10;;;6.60;;
8171;SDS011;4127;47.908;10.850;2022-08-19T05:47:19;7.30;;;6.70;;
8171;SDS011;4127;47.908;10.850;2022-08-19T05:49:48;8.10;;;7.40;;
8171;SDS011;4127;47.908;10.850;2022-08-19T05:52:16;8.00;;;7.30;;
8171;SDS011;4127;47.908;10.850;2022-08-19T05:54:45;7.57;;;6.97;;
8171;SDS011;4127;47.908;10.850;2022-08-19T05:57:17;8.10;;;7.30;;
8171;SDS011;4127;47.908;10.850;2022-08-19T05:59:45;8.17;;;7.47;;
8171;SDS011;4127;47.908;10.850;2022-08-19T06:02:18;7.90;;;7.30;;
8171;SDS011;4127;47.908;10.850;2022-08-19T06:04:44;7.97;;;7.27;;
8171;SDS011;4127;47.908;10.850;2022-08-19T06:07:11;7.93;;;7.23;;
8171;SDS011;4127;47.908;10.850;2022-08-19T06:09:39;7.37;;;6.77;;
8171;SDS011;4127;47.908;10.850;2022-08-19T06:12:24;7.33;;;6.73;;
8171;SDS011;4127;47.908;10.850;2022-08-19T06:14:54;7.53;;;6.93;;
8171;SDS011;4127;47.908;10.850;2022-08-19T06:17:27;8.93;;;6.60;;
8171;SDS011;4127;47.908;10.850;2022-08-19T06:19:56;7.23;;;6.63;;
8171;SDS011;4127;47.908;10.850;2022-08-19T06:22:25;7.20;;;6.53;;
8171;SDS011;4127;47.908;10.850;2022-08-19T06:24:52;6.80;;;6.20;;
8171;SDS011;4127;47.908;10.850;2022-08-19T06:27:20;7.20;;;6.50;;
8171;SDS011;4127;47.908;10.850;2022-08-19T06:29:47;7.23;;;6.63;;
8171;SDS011;4127;47.908;10.850;2022-08-19T06:32:15;8.53;;;7.83;;
8171;SDS011;4127;47.908;10.850;2022-08-19T06:34:42;8.50;;;7.70;;
8171;SDS011;4127;47.908;10.850;2022-08-19T06:37:10;8.27;;;7.57;;
8171;SDS011;4127;47.908;10.850;2022-08-19T06:39:38;9.30;;;8.40;;
8171;SDS011;4127;47.908;10.850;2022-08-19T06:42:06;9.37;;;8.47;;
8171;SDS011;4127;47.908;10.850;2022-08-19T06:44:39;10.83;;;9.83;;
8171;SDS011;4127;47.908;10.850;2022-08-19T06:47:14;9.83;;;8.93;;
8171;SDS011;4127;47.908;10.850;2022-08-19T06:49:50;9.70;;;8.80;;
8171;SDS011;4127;47.908;10.850;2022-08-19T06:52:19;8.50;;;7.70;;
8171;SDS011;4127;47.908;10.850;2022-08-19T06:54:46;9.10;;;8.27;;
8171;SDS011;4127;47.908;10.850;2022-08-19T06:57:22;9.47;;;8.57;;
8171;SDS011;4127;47.908;10.850;2022-08-19T06:59:50;9.17;;;8.33;;
8171;SDS011;4127;47.908;10.850;2022-08-19T07:02:18;11.67;;;10.47;;
8171;SDS011;4127;47.908;10.850;2022-08-19T07:04:46;11.57;;;10.57;;
8171;SDS011;4127;47.908;10.850;2022-08-19T07:07:18;14.23;;;12.83;;
8171;SDS011;4127;47.908;10.850;2022-08-19T07:09:47;15.97;;;14.43;;
8171;SDS011;4127;47.908;10.850;2022-08-19T07:12:25;17.03;;;14.00;;
8171;SDS011;4127;47.908;10.850;2022-08-19T07:14:56;16.33;;;14.63;;
8171;SDS011;4127;47.908;10.850;2022-08-19T07:17:24;14.57;;;13.03;;
8171;SDS011;4127;47.908;10.850;2022-08-19T07:19:51;16.40;;;14.67;;
8171;SDS011;4127;47.908;10.850;2022-08-19T07:22:20;15.63;;;14.03;;
8171;SDS011;4127;47.908;10.850;2022-08-19T07:24:49;20.87;;;18.57;;
8171;SDS011;4127;47.908;10.850;2022-08-19T07:27:17;19.73;;;17.63;;
8171;SDS011;4127;47.908;10.850;2022-08-19T07:29:50;18.30;;;16.50;;
8171;SDS011;4127;47.908;10.850;2022-08-19T07:32:22;16.77;;;15.07;;
8171;SDS011;4127;47.908;10.850;2022-08-19T07:34:53;15.37;;;13.87;;
8171;SDS011;4127;47.908;10.850;2022-08-19T07:37:21;17.17;;;15.23;;
8171;SDS011;4127;47.908;10.850;2022-08-19T07:39:49;17.80;;;16.03;;
8171;SDS011;4127;47.908;10.850;2022-08-19T07:42:16;18.87;;;16.87;;
8171;SDS011;4127;47.908;10.850;2022-08-19T07:44:43;18.33;;;16.50;;
8171;SDS011;4127;47.908;10.850;2022-08-19T07:47:16;19.10;;;16.97;;
8171;SDS011;4127;47.908;10.850;2022-08-19T07:50:04;20.23;;;18.13;;
8171;SDS011;4127;47.908;10.850;2022-08-19T07:52:33;19.80;;;17.43;;
8171;SDS011;4127;47.908;10.850;2022-08-19T07:55:03;21.57;;;18.27;;
8171;SDS011;4127;47.908;10.850;2022-08-19T07:57:30;19.00;;;17.00;;
8171;SDS011;4127;47.908;10.850;2022-08-19T07:59:57;19.67;;;17.57;;
8171;SDS011;4127;47.908;10.850;2022-08-19T08:02:25;19.30;;;16.57;;
8171;SDS011;4127;47.908;10.850;2022-08-19T08:04:51;17.63;;;15.73;;
8171;SDS011;4127;47.908;10.850;2022-08-19T08:07:38;17.83;;;15.93;;
8171;SDS011;4127;47.908;10.850;2022-08-19T08:10:23;19.10;;;16.37;;
8171;SDS011;4127;47.908;10.850;2022-08-19T08:12:51;18.07;;;16.17;;
8171;SDS011;4127;47.908;10.850;2022-08-19T08:15:35;16.17;;;13.97;;
8171;SDS011;4127;47.908;10.850;2022-08-19T08:18:08;15.17;;;13.57;;
8171;SDS011;4127;47.908;10.850;2022-08-19T08:20:36;16.40;;;14.80;;
8171;SDS011;4127;47.908;10.850;2022-08-19T08:23:03;14.17;;;12.77;;
8171;SDS011;4127;47.908;10.850;2022-08-19T08:25:48;14.77;;;13.27;;
8171;SDS011;4127;47.908;10.850;2022-08-19T08:28:16;15.33;;;13.83;;
8171;SDS011;4127;47.908;10.850;2022-08-19T08:30:43;14.50;;;13.00;;
8171;SDS011;4127;47.908;10.850;2022-08-19T08:33:12;15.03;;;13.43;;
8171;SDS011;4127;47.908;10.850;2022-08-19T08:35:41;14.80;;;13.30;;
8171;SDS011;4127;47.908;10.850;2022-08-19T08:38:08;16.30;;;14.60;;
8171;SDS011;4127;47.908;10.850;2022-08-19T08:43:23;14.30;;;12.83;;
8171;SDS011;4127;47.908;10.850;2022-08-19T08:46:13;14.67;;;13.30;;
8171;SDS011;4127;47.908;10.850;2022-08-19T08:49:02;14.77;;;12.50;;
8171;SDS011;4127;47.908;10.850;2022-08-19T08:51:51;14.93;;;13.53;;
8171;SDS011;4127;47.908;10.850;2022-08-19T08:54:36;12.57;;;11.27;;
8171;SDS011;4127;47.908;10.850;2022-08-19T08:57:36;13.37;;;12.17;;
8171;SDS011;4127;47.908;10.850;2022-08-19T09:00:33;12.27;;;11.17;;
8171;SDS011;4127;47.908;10.850;2022-08-19T09:03:03;12.37;;;11.17;;
8171;SDS011;4127;47.908;10.850;2022-08-19T09:06:10;12.37;;;11.23;;
8171;SDS011;4127;47.908;10.850;2022-08-19T09:17:18;10.60;;;9.60;;
8171;SDS011;4127;47.908;10.850;2022-08-19T09:19:58;11.20;;;10.20;;
8171;SDS011;4127;47.908;10.850;2022-08-19T09:22:35;10.77;;;9.77;;
8171;SDS011;4127;47.908;10.850;2022-08-19T09:25:06;8.90;;;8.10;;
8171;SDS011;4127;47.908;10.850;2022-08-19T09:27:36;7.50;;;6.80;;
8171;SDS011;4127;47.908;10.850;2022-08-19T09:30:19;6.37;;;5.83;;
8171;SDS011;4127;47.908;10.850;2022-08-19T09:32:47;6.90;;;6.30;;
8171;SDS011;4127;47.908;10.850;2022-08-19T09:35:18;6.73;;;6.13;;
8171;SDS011;4127;47.908;10.850;2022-08-19T09:37:50;5.90;;;5.40;;
8171;SDS011;4127;47.908;10.850;2022-08-19T09:40:25;5.80;;;5.30;;
8171;SDS011;4127;47.908;10.850;2022-08-19T09:42:58;5.80;;;5.30;;
8171;SDS011;4127;47.908;10.850;2022-08-19T09:45:38;6.00;;;5.50;;
8171;SDS011;4127;47.908;10.850;2022-08-19T09:48:04;5.53;;;5.03;;
8171;SDS011;4127;47.908;10.850;2022-08-19T09:50:32;5.43;;;4.93;;
8171;SDS011;4127;47.908;10.850;2022-08-19T09:53:01;5.00;;;4.60;;
8171;SDS011;4127;47.908;10.850;2022-08-19T09:55:27;4.97;;;4.57;;
8171;SDS011;4127;47.908;10.850;2022-08-19T09:57:57;4.63;;;4.23;;
8171;SDS011;4127;47.908;10.850;2022-08-19T10:00:24;4.70;;;4.30;;
8171;SDS011;4127;47.908;10.850;2022-08-19T10:02:52;4.70;;;4.30;;
8171;SDS011;4127;47.908;10.850;2022-08-19T10:05:19;4.50;;;4.10;;
8171;SDS011;4127;47.908;10.850;2022-08-19T10:08:07;5.37;;;4.87;;
8171;SDS011;4127;47.908;10.850;2022-08-19T10:10:39;5.40;;;5.00;;
8171;SDS011;4127;47.908;10.850;2022-08-19T10:13:12;11.93;;;10.77;;
8171;SDS011;4127;47.908;10.850;2022-08-19T10:15:42;6.40;;;5.80;;
8171;SDS011;4127;47.908;10.850;2022-08-19T10:18:14;4.53;;;4.03;;
8171;SDS011;4127;47.908;10.850;2022-08-19T10:20:45;4.00;;;3.70;;
8171;SDS011;4127;47.908;10.850;2022-08-19T10:23:18;3.57;;;3.27;;
8171;SDS011;4127;47.908;10.850;2022-08-19T10:25:47;3.63;;;3.33;;
8171;SDS011;4127;47.908;10.850;2022-08-19T10:28:15;3.40;;;3.20;;
8171;SDS011;4127;47.908;10.850;2022-08-19T10:30:45;3.57;;;3.37;;
8171;SDS011;4127;47.908;10.850;2022-08-19T10:33:12;3.97;;;3.67;;
8171;SDS011;4127;47.908;10.850;2022-08-19T10:35:40;4.40;;;4.10;;
8171;SDS011;4127;47.908;10.850;2022-08-19T10:38:23;4.30;;;4.00;;
8171;SDS011;4127;47.908;10.850;2022-08-19T10:40:57;3.80;;;3.50;;
8171;SDS011;4127;47.908;10.850;2022-08-19T10:43:32;3.37;;;3.07;;
8171;SDS011;4127;47.908;10.850;2022-08-19T10:46:02;3.07;;;2.87;;
8171;SDS011;4127;47.908;10.850;2022-08-19T10:48:34;3.20;;;3.00;;
8171;SDS011;4127;47.908;10.850;2022-08-19T10:51:02;3.00;;;2.80;;
8171;SDS011;4127;47.908;10.850;2022-08-19T10:53:49;2.93;;;2.73;;
8171;SDS011;4127;47.908;10.850;2022-08-19T10:56:17;2.83;;;2.63;;
8171;SDS011;4127;47.908;10.850;2022-08-19T10:59:03;2.20;;;2.10;;
8171;SDS011;4127;47.908;10.850;2022-08-19T11:01:31;2.10;;;2.00;;
8171;SDS011;4127;47.908;10.850;2022-08-19T11:04:01;2.20;;;2.00;;
8171;SDS011;4127;47.908;10.850;2022-08-19T11:06:29;2.00;;;1.90;;
8171;SDS011;4127;47.908;10.850;2022-08-19T11:08:58;2.13;;;2.03;;
8171;SDS011;4127;47.908;10.850;2022-08-19T11:11:26;2.23;;;2.10;;
8171;SDS011;4127;47.908;10.850;2022-08-19T11:13:54;2.37;;;2.13;;
8171;SDS011;4127;47.908;10.850;2022-08-19T11:16:22;2.60;;;2.40;;
8171;SDS011;4127;47.908;10.850;2022-08-19T11:18:53;2.27;;;2.10;;
8171;SDS011;4127;47.908;10.850;2022-08-19T11:21:26;2.67;;;2.47;;
8171;SDS011;4127;47.908;10.850;2022-08-19T11:23:55;2.50;;;2.30;;
8171;SDS011;4127;47.908;10.850;2022-08-19T11:26:23;2.90;;;2.70;;
8171;SDS011;4127;47.908;10.850;2022-08-19T11:28:51;5.13;;;3.40;;
8171;SDS011;4127;47.908;10.850;2022-08-19T11:31:21;4.00;;;3.60;;
8171;SDS011;4127;47.908;10.850;2022-08-19T11:33:55;4.33;;;4.03;;
8171;SDS011;4127;47.908;10.850;2022-08-19T11:36:23;4.23;;;3.93;;
8171;SDS011;4127;47.908;10.850;2022-08-19T11:38:50;4.73;;;4.33;;
8171;SDS011;4127;47.908;10.850;2022-08-19T11:41:19;4.40;;;4.00;;
8171;SDS011;4127;47.908;10.850;2022-08-19T11:43:52;4.00;;;3.70;;
8171;SDS011;4127;47.908;10.850;2022-08-19T11:46:22;4.00;;;3.70;;
8171;SDS011;4127;47.908;10.850;2022-08-19T11:48:50;4.60;;;4.20;;
8171;SDS011;4127;47.908;10.850;2022-08-19T11:51:19;3.80;;;3.50;;
8171;SDS011;4127;47.908;10.850;2022-08-19T11:53:48;4.00;;;3.70;;
8171;SDS011;4127;47.908;10.850;2022-08-19T11:56:16;3.23;;;3.00;;
8171;SDS011;4127;47.908;10.850;2022-08-19T11:58:44;3.37;;;3.07;;
8171;SDS011;4127;47.908;10.850;2022-08-19T12:01:12;3.70;;;3.50;;
8171;SDS011;4127;47.908;10.850;2022-08-19T12:03:42;3.30;;;3.00;;
8171;SDS011;4127;47.908;10.850;2022-08-19T12:06:12;2.93;;;2.70;;
8171;SDS011;4127;47.908;10.850;2022-08-19T12:08:41;2.90;;;2.70;;
8171;SDS011;4127;47.908;10.850;2022-08-19T12:11:10;2.87;;;2.67;;
8171;SDS011;4127;47.908;10.850;2022-08-19T12:13:38;2.90;;;2.70;;
8171;SDS011;4127;47.908;10.850;2022-08-19T12:16:12;2.70;;;2.50;;
8171;SDS011;4127;47.908;10.850;2022-08-19T12:18:43;7.20;;;5.50;;
8171;SDS011;4127;47.908;10.850;2022-08-19T12:21:16;5.43;;;4.93;;
8171;SDS011;4127;47.908;10.850;2022-08-19T12:23:52;3.93;;;3.63;;
8171;SDS011;4127;47.908;10.850;2022-08-19T12:26:21;2.97;;;2.77;;
8171;SDS011;4127;47.908;10.850;2022-08-19T12:28:48;3.70;;;3.40;;
8171;SDS011;4127;47.908;10.850;2022-08-19T12:31:15;4.30;;;4.00;;
8171;SDS011;4127;47.908;10.850;2022-08-19T12:33:43;5.10;;;4.70;;
8171;SDS011;4127;47.908;10.850;2022-08-19T12:36:10;4.30;;;4.00;;
8171;SDS011;4127;47.908;10.850;2022-08-19T12:38:38;5.00;;;4.60;;
8171;SDS011;4127;47.908;10.850;2022-08-19T12:41:06;5.17;;;4.77;;
8171;SDS011;4127;47.908;10.850;2022-08-19T12:43:36;5.03;;;4.63;;
8171;SDS011;4127;47.908;10.850;2022-08-19T12:46:04;4.67;;;4.27;;
8171;SDS011;4127;47.908;10.850;2022-08-19T12:48:35;4.70;;;4.30;;
8171;SDS011;4127;47.908;10.850;2022-08-19T12:51:09;5.00;;;4.60;;
8171;SDS011;4127;47.908;10.850;2022-08-19T12:53:38;4.97;;;4.57;;
8171;SDS011;4127;47.908;10.850;2022-08-19T12:56:07;4.37;;;4.07;;
8171;SDS011;4127;47.908;10.850;2022-08-19T12:58:38;4.63;;;4.33;;
8171;SDS011;4127;47.908;10.850;2022-08-19T13:01:06;4.57;;;4.17;;
8171;SDS011;4127;47.908;10.850;2022-08-19T13:03:34;4.80;;;4.43;;
8171;SDS011;4127;47.908;10.850;2022-08-19T13:06:06;4.93;;;4.53;;
8171;SDS011;4127;47.908;10.850;2022-08-19T13:08:33;5.00;;;4.60;;
8171;SDS011;4127;47.908;10.850;2022-08-19T13:11:13;5.47;;;4.97;;
8171;SDS011;4127;47.908;10.850;2022-08-19T13:13:44;5.47;;;5.07;;
8171;SDS011;4127;47.908;10.850;2022-08-19T13:16:12;5.80;;;5.30;;
8171;SDS011;4127;47.908;10.850;2022-08-19T13:18:40;4.63;;;4.33;;
8171;SDS011;4127;47.908;10.850;2022-08-19T13:21:08;5.80;;;5.30;;
8171;SDS011;4127;47.908;10.850;2022-08-19T13:23:39;5.37;;;4.97;;
8171;SDS011;4127;47.908;10.850;2022-08-19T13:26:07;5.73;;;5.23;;
8171;SDS011;4127;47.908;10.850;2022-08-19T13:28:35;5.37;;;4.97;;
8171;SDS011;4127;47.908;10.850;2022-08-19T13:31:22;4.83;;;4.43;;
8171;SDS011;4127;47.908;10.850;2022-08-19T13:34:08;5.50;;;5.10;;
8171;SDS011;4127;47.908;10.850;2022-08-19T13:36:36;5.77;;;5.00;;
8171;SDS011;4127;47.908;10.850;2022-08-19T13:39:04;5.30;;;4.90;;
8171;SDS011;4127;47.908;10.850;2022-08-19T13:41:33;5.80;;;5.40;;
8171;SDS011;4127;47.908;10.850;2022-08-19T13:44:01;4.53;;;4.23;;
8171;SDS011;4127;47.908;10.850;2022-08-19T13:46:28;5.03;;;4.63;;
8171;SDS011;4127;47.908;10.850;2022-08-19T13:48:55;5.20;;;4.80;;
8171;SDS011;4127;47.908;10.850;2022-08-19T13:51:22;5.10;;;4.70;;
8171;SDS011;4127;47.908;10.850;2022-08-19T13:53:49;4.80;;;4.50;;
8171;SDS011;4127;47.908;10.850;2022-08-19T13:56:18;4.70;;;4.30;;
8171;SDS011;4127;47.908;10.850;2022-08-19T13:58:51;4.27;;;3.97;;
8171;SDS011;4127;47.908;10.850;2022-08-19T14:01:22;3.60;;;3.40;;
8171;SDS011;4127;47.908;10.850;2022-08-19T14:03:50;3.63;;;3.33;;
8171;SDS011;4127;47.908;10.850;2022-08-19T14:06:17;3.60;;;3.30;;
8171;SDS011;4127;47.908;10.850;2022-08-19T14:08:44;4.03;;;3.73;;
8171;SDS011;4127;47.908;10.850;2022-08-19T14:11:12;3.00;;;2.80;;
8171;SDS011;4127;47.908;10.850;2022-08-19T14:13:39;3.00;;;2.80;;
8171;SDS011;4127;47.908;10.850;2022-08-19T14:16:09;3.27;;;3.07;;
8171;SDS011;4127;47.908;10.850;2022-08-19T14:18:39;2.60;;;2.40;;
8171;SDS011;4127;47.908;10.850;2022-08-19T14:21:06;2.40;;;2.20;;
8171;SDS011;4127;47.908;10.850;2022-08-19T14:23:33;2.57;;;2.37;;
8171;SDS011;4127;47.908;10.850;2022-08-19T14:26:06;2.17;;;2.07;;
8171;SDS011;4127;47.908;10.850;2022-08-19T14:28:35;2.47;;;2.27;;
8171;SDS011;4127;47.908;10.850;2022-08-19T14:31:02;2.80;;;2.60;;
8171;SDS011;4127;47.908;10.850;2022-08-19T14:33:28;2.80;;;2.60;;
8171;SDS011;4127;47.908;10.850;2022-08-19T14:35:55;3.10;;;2.90;;
8171;SDS011;4127;47.908;10.850;2022-08-19T14:38:25;2.53;;;2.40;;
8171;SDS011;4127;47.908;10.850;2022-08-19T14:41:10;2.57;;;2.37;;
8171;SDS011;4127;47.908;10.850;2022-08-19T14:43:43;2.20;;;2.10;;
8171;SDS011;4127;47.908;10.850;2022-08-19T14:46:14;3.40;;;3.20;;
8171;SDS011;4127;47.908;10.850;2022-08-19T14:48:46;3.70;;;3.40;;
8171;SDS011;4127;47.908;10.850;2022-08-19T14:51:17;4.67;;;4.27;;
8171;SDS011;4127;47.908;10.850;2022-08-19T14:53:45;5.07;;;4.63;;
8171;SDS011;4127;47.908;10.850;2022-08-19T14:56:15;4.20;;;3.80;;
8171;SDS011;4127;47.908;10.850;2022-08-19T14:58:44;3.17;;;2.90;;
8171;SDS011;4127;47.908;10.850;2022-08-19T15:01:11;3.13;;;2.87;;
8171;SDS011;4127;47.908;10.850;2022-08-19T15:03:39;2.00;;;1.90;;
8171;SDS011;4127;47.908;10.850;2022-08-19T15:06:07;2.00;;;1.90;;
8171;SDS011;4127;47.908;10.850;2022-08-19T15:08:38;2.00;;;1.90;;
8171;SDS011;4127;47.908;10.850;2022-08-19T15:11:08;2.47;;;2.27;;
8171;SDS011;4127;47.908;10.850;2022-08-19T15:13:36;1.60;;;1.50;;
8171;SDS011;4127;47.908;10.850;2022-08-19T15:16:03;2.20;;;2.00;;
8171;SDS011;4127;47.908;10.850;2022-08-19T15:18:30;2.03;;;1.93;;
8171;SDS011;4127;47.908;10.850;2022-08-19T15:20:58;1.80;;;1.70;;
8171;SDS011;4127;47.908;10.850;2022-08-19T15:23:25;1.90;;;1.80;;
8171;SDS011;4127;47.908;10.850;2022-08-19T15:25:52;2.83;;;2.13;;
8171;SDS011;4127;47.908;10.850;2022-08-19T15:28:22;1.93;;;1.70;;
8171;SDS011;4127;47.908;10.850;2022-08-19T15:30:50;1.50;;;1.40;;
8171;SDS011;4127;47.908;10.850;2022-08-19T15:33:18;1.30;;;1.30;;
8171;SDS011;4127;47.908;10.850;2022-08-19T15:35:46;2.30;;;1.80;;